createdAt,value
2019-05-25T00:00:54.932Z,36.30
2019-05-25T00:03:23.457Z,36.40
2019-05-25T00:05:51.928Z,36.50
2019-05-25T00:08:20.403Z,36.70
2019-05-25T00:10:48.871Z,36.90
2019-05-25T00:13:17.320Z,36.90
2019-05-25T00:15:45.879Z,37.00
2019-05-25T00:18:14.351Z,36.90
2019-05-25T00:20:42.806Z,37.00
2019-05-25T00:23:11.356Z,37.10
2019-05-25T00:25:39.811Z,37.10
2019-05-25T00:28:08.255Z,37.20
2019-05-25T00:30:36.715Z,37.20
2019-05-25T00:33:05.169Z,37.40
2019-05-25T00:35:33.959Z,37.40
2019-05-25T00:38:02.493Z,37.30
2019-05-25T00:40:31.034Z,37.30
2019-05-25T00:42:59.493Z,37.30
2019-05-25T00:45:27.991Z,37.50
2019-05-25T00:47:56.453Z,37.40
2019-05-25T00:50:24.919Z,37.40
2019-05-25T00:52:53.356Z,37.40
2019-05-25T00:55:21.843Z,37.40
2019-05-25T00:57:50.384Z,37.50
2019-05-25T01:00:19.308Z,37.60
2019-05-25T01:02:47.894Z,37.70
2019-05-25T01:05:16.616Z,37.60
2019-05-25T01:07:45.089Z,37.80
2019-05-25T01:10:13.916Z,37.80
2019-05-25T01:12:42.396Z,37.80
2019-05-25T01:15:13.077Z,37.80
2019-05-25T01:17:41.626Z,37.80
2019-05-25T01:20:11.110Z,37.60
2019-05-25T01:22:39.818Z,37.60
2019-05-25T01:25:09.628Z,37.60
2019-05-25T01:27:38.149Z,37.60
2019-05-25T01:30:08.896Z,37.50
2019-05-25T01:32:37.506Z,37.50
2019-05-25T01:35:06.718Z,37.40
2019-05-25T01:37:35.204Z,37.50
2019-05-25T01:40:04.944Z,37.60
2019-05-25T01:42:33.427Z,37.60
2019-05-25T01:45:01.876Z,37.80
2019-05-25T01:47:30.512Z,37.70
2019-05-25T01:49:59.040Z,37.60
2019-05-25T01:52:27.486Z,37.80
2019-05-25T01:54:59.827Z,37.80
2019-05-25T01:57:26.184Z,37.80
2019-05-25T01:59:54.648Z,37.80
2019-05-25T02:02:23.164Z,37.80
2019-05-25T02:04:51.628Z,37.80
2019-05-25T02:07:20.097Z,37.90
2019-05-25T02:09:48.606Z,38.10
2019-05-25T02:12:17.068Z,38.20
2019-05-25T02:14:45.513Z,38.40
2019-05-25T02:17:13.976Z,38.50
2019-05-25T02:19:44.360Z,38.60
2019-05-25T02:22:12.592Z,38.50
2019-05-25T02:24:41.053Z,38.60
2019-05-25T02:27:09.501Z,38.60
2019-05-25T02:29:38.220Z,38.50
2019-05-25T02:32:06.670Z,38.50
2019-05-25T02:34:35.189Z,38.50
2019-05-25T02:37:03.697Z,38.60
2019-05-25T02:39:32.234Z,38.50
2019-05-25T02:42:00.748Z,38.70
2019-05-25T02:44:29.200Z,38.60
2019-05-25T02:46:57.642Z,38.60
2019-05-25T02:49:28.787Z,38.70
2019-05-25T02:51:57.234Z,38.70
2019-05-25T02:54:25.699Z,38.70
2019-05-25T02:56:54.144Z,38.70
2019-05-25T02:59:22.670Z,38.80
2019-05-25T03:01:51.108Z,38.70
2019-05-25T03:04:19.764Z,38.80
2019-05-25T03:06:49.151Z,38.70
2019-05-25T03:09:19.199Z,38.80
2019-05-25T03:11:49.552Z,38.90
2019-05-25T03:14:19.237Z,39.10
2019-05-25T03:16:47.841Z,39.30
2019-05-25T03:19:16.311Z,38.90
2019-05-25T03:21:44.757Z,39.00
2019-05-25T03:24:13.211Z,39.00
2019-05-25T03:26:41.653Z,39.10
2019-05-25T03:29:10.176Z,39.00
2019-05-25T03:31:38.690Z,39.10
2019-05-25T03:34:07.143Z,39.10
2019-05-25T03:36:35.588Z,39.10
2019-05-25T03:39:06.495Z,39.30
2019-05-25T03:41:35.001Z,39.30
2019-05-25T03:44:03.527Z,39.30
2019-05-25T03:46:31.986Z,39.30
2019-05-25T03:49:00.450Z,39.50
2019-05-25T03:51:28.901Z,39.40
2019-05-25T03:53:57.427Z,39.40
2019-05-25T03:56:25.870Z,39.40
2019-05-25T03:58:54.335Z,39.50
2019-05-25T04:01:22.770Z,39.40
2019-05-25T04:03:51.686Z,39.40
2019-05-25T04:06:20.122Z,39.30
2019-05-25T04:08:48.588Z,39.30
2019-05-25T04:11:17.039Z,39.30
2019-05-25T04:13:45.505Z,39.30
2019-05-25T04:16:14.020Z,39.40
2019-05-25T04:18:42.554Z,39.40
2019-05-25T04:21:10.993Z,39.40
2019-05-25T04:23:39.496Z,39.30
2019-05-25T04:26:21.335Z,39.20
2019-05-25T04:28:38.115Z,39.20
2019-05-25T04:31:06.576Z,39.20
2019-05-25T04:33:35.020Z,39.10
2019-05-25T04:36:03.569Z,39.10
2019-05-25T04:38:32.024Z,39.10
2019-05-25T04:41:00.487Z,39.10
2019-05-25T04:43:28.940Z,39.10
2019-05-25T04:45:57.397Z,39.50
2019-05-25T04:48:25.857Z,39.10
2019-05-25T04:50:54.315Z,39.10
2019-05-25T04:53:22.827Z,39.00
2019-05-25T04:55:51.295Z,39.00
2019-05-25T04:58:19.777Z,39.00
2019-05-25T05:00:49.057Z,38.90
2019-05-25T05:03:17.551Z,38.90
2019-05-25T05:05:46.011Z,38.80
2019-05-25T05:08:14.461Z,38.70
2019-05-25T05:10:43.798Z,38.70
2019-05-25T05:13:13.601Z,38.70
2019-05-25T05:15:42.096Z,38.50
2019-05-25T05:18:10.731Z,38.40
2019-05-25T05:20:39.301Z,38.40
2019-05-25T05:23:07.741Z,38.40
2019-05-25T05:25:36.209Z,38.30
2019-05-25T05:28:04.715Z,38.20
2019-05-25T05:30:34.348Z,38.20
2019-05-25T05:33:03.095Z,38.60
2019-05-25T05:35:33.962Z,38.10
2019-05-25T05:38:05.919Z,38.20
2019-05-25T05:40:35.993Z,38.10
2019-05-25T05:43:09.169Z,38.10
2019-05-25T05:45:40.738Z,38.00
2019-05-25T05:48:10.830Z,38.00
2019-05-25T05:50:40.100Z,37.80
2019-05-25T05:53:08.683Z,37.80
2019-05-25T05:55:37.172Z,37.80
2019-05-25T05:58:05.744Z,37.80
2019-05-25T06:00:34.280Z,37.70
2019-05-25T06:03:02.794Z,37.70
2019-05-25T06:05:31.264Z,37.70
2019-05-25T06:07:59.703Z,37.60
2019-05-25T06:10:28.260Z,37.50
2019-05-25T06:12:56.724Z,37.80
2019-05-25T06:15:26.296Z,37.40
2019-05-25T06:17:54.940Z,37.30
2019-05-25T06:20:23.527Z,37.30
2019-05-25T06:22:52.066Z,37.30
2019-05-25T06:25:21.171Z,37.20
2019-05-25T06:27:49.630Z,37.30
2019-05-25T06:30:18.739Z,37.10
2019-05-25T06:32:47.212Z,37.10
2019-05-25T06:35:15.826Z,37.10
2019-05-25T06:37:44.290Z,37.10
2019-05-25T06:40:13.302Z,37.00
2019-05-25T06:42:41.839Z,36.90
2019-05-25T06:45:11.998Z,36.90
2019-05-25T06:47:40.505Z,36.90
2019-05-25T06:50:11.242Z,36.90
2019-05-25T06:52:39.703Z,36.80
2019-05-25T06:55:08.492Z,36.60
2019-05-25T06:57:43.005Z,36.60
2019-05-25T07:00:09.236Z,36.40
2019-05-25T07:02:37.786Z,36.40
2019-05-25T07:05:09.386Z,36.20
2019-05-25T07:07:37.860Z,36.00
2019-05-25T07:10:10.577Z,35.80
2019-05-25T07:12:39.029Z,35.50
2019-05-25T07:15:08.658Z,35.50
2019-05-25T07:17:37.100Z,35.40
2019-05-25T07:20:09.331Z,35.20
2019-05-25T07:22:37.845Z,34.90
2019-05-25T07:25:07.304Z,34.80
2019-05-25T07:27:35.763Z,34.70
2019-05-25T07:30:06.087Z,34.70
2019-05-25T07:32:34.945Z,34.50
2019-05-25T07:35:04.879Z,34.60
2019-05-25T07:37:33.459Z,34.60
2019-05-25T07:40:01.991Z,34.80
2019-05-25T07:42:30.432Z,35.00
2019-05-25T07:44:58.898Z,34.60
2019-05-25T07:47:27.359Z,34.30
2019-05-25T07:49:55.819Z,34.50
2019-05-25T07:52:24.262Z,34.70
2019-05-25T07:54:52.860Z,34.80
2019-05-25T07:57:21.321Z,34.90
2019-05-25T07:59:49.797Z,35.00
2019-05-25T08:02:18.245Z,34.80
2019-05-25T08:04:46.785Z,34.40
2019-05-25T08:07:15.294Z,34.50
2019-05-25T08:09:43.778Z,34.20
2019-05-25T08:12:12.212Z,34.40
2019-05-25T08:14:40.749Z,34.30
2019-05-25T08:17:09.201Z,34.40
2019-05-25T08:19:37.655Z,34.30
2019-05-25T08:22:06.197Z,34.60
2019-05-25T08:24:34.663Z,34.30
2019-05-25T08:27:03.191Z,34.20
2019-05-25T08:29:32.745Z,34.10
2019-05-25T08:32:01.183Z,33.90
2019-05-25T08:34:29.639Z,33.90
2019-05-25T08:36:58.089Z,33.80
2019-05-25T08:39:26.555Z,33.90
2019-05-25T08:41:55.003Z,33.60
2019-05-25T08:44:23.473Z,33.70
2019-05-25T08:46:55.211Z,33.70
2019-05-25T08:49:22.116Z,33.70
2019-05-25T08:51:50.557Z,33.80
2019-05-25T08:54:19.005Z,33.90
2019-05-25T08:56:47.463Z,34.00
2019-05-25T08:59:15.913Z,34.00
2019-05-25T09:01:44.402Z,34.10
2019-05-25T09:04:12.891Z,34.20
2019-05-25T09:06:41.368Z,34.20
2019-05-25T09:09:09.805Z,34.30
2019-05-25T09:11:38.276Z,34.20
2019-05-25T09:14:06.719Z,34.20
2019-05-25T09:16:35.588Z,34.20
2019-05-25T09:19:04.159Z,34.40
2019-05-25T09:21:32.628Z,34.40
2019-05-25T09:24:01.151Z,34.40
2019-05-25T09:26:29.655Z,34.30
2019-05-25T09:29:04.597Z,34.30
2019-05-25T09:31:28.619Z,34.30
2019-05-25T09:33:57.080Z,34.20
2019-05-25T09:36:25.540Z,34.30
2019-05-25T09:38:53.995Z,34.10
2019-05-25T09:41:22.455Z,34.10
2019-05-25T09:43:50.905Z,34.20
2019-05-25T09:46:19.428Z,34.10
2019-05-25T09:48:47.865Z,34.20
2019-05-25T09:51:16.333Z,34.40
2019-05-25T09:53:44.793Z,34.40
2019-05-25T09:56:13.313Z,34.10
2019-05-25T09:58:41.784Z,34.10
2019-05-25T10:01:10.273Z,34.00
2019-05-25T10:03:38.744Z,33.80
2019-05-25T10:06:11.592Z,33.70
2019-05-25T10:08:37.614Z,33.40
2019-05-25T10:11:06.222Z,33.10
2019-05-25T10:13:34.720Z,33.10
2019-05-25T10:16:03.223Z,33.40
2019-05-25T10:18:31.731Z,32.80
2019-05-25T10:21:00.180Z,32.40
2019-05-25T10:23:28.656Z,32.40
2019-05-25T10:25:57.113Z,32.00
2019-05-25T10:28:28.933Z,31.60
2019-05-25T10:30:57.472Z,31.90
2019-05-25T10:33:25.926Z,31.90
2019-05-25T10:35:54.463Z,32.40
2019-05-25T10:38:22.946Z,32.00
2019-05-25T10:40:51.386Z,32.20
2019-05-25T10:43:19.859Z,32.30
2019-05-25T10:45:48.376Z,33.10
2019-05-25T10:48:16.866Z,33.80
2019-05-25T10:50:45.329Z,34.60
2019-05-25T10:53:13.836Z,35.50
2019-05-25T10:55:42.301Z,35.60
2019-05-25T10:58:10.746Z,36.40
2019-05-25T11:00:39.286Z,37.10
2019-05-25T11:03:07.738Z,37.60
2019-05-25T11:05:36.228Z,37.90
2019-05-25T11:08:04.764Z,38.10
2019-05-25T11:10:33.211Z,38.50
2019-05-25T11:13:01.690Z,38.30
2019-05-25T11:15:30.206Z,38.00
2019-05-25T11:17:58.682Z,37.30
2019-05-25T11:20:27.275Z,37.20
2019-05-25T11:22:55.817Z,36.20
2019-05-25T11:25:24.265Z,36.70
2019-05-25T11:27:52.736Z,36.10
2019-05-25T11:30:21.415Z,35.90
2019-05-25T11:32:49.885Z,34.30
2019-05-25T11:35:18.901Z,33.80
2019-05-25T11:37:47.434Z,33.30
2019-05-25T11:40:16.207Z,33.00
2019-05-25T11:42:44.675Z,32.80
2019-05-25T11:45:13.653Z,31.90
2019-05-25T11:47:42.260Z,31.30
2019-05-25T11:50:13.624Z,30.90
2019-05-25T11:52:42.152Z,30.40
2019-05-25T11:55:10.959Z,30.20
2019-05-25T11:57:39.397Z,30.40
2019-05-25T12:00:24.170Z,30.70
2019-05-25T12:02:43.747Z,31.00
2019-05-25T12:05:12.733Z,31.20
2019-05-25T12:07:44.500Z,31.30
2019-05-25T12:10:12.097Z,30.90
2019-05-25T12:12:40.542Z,30.70
2019-05-25T12:15:09.651Z,30.70
2019-05-25T12:17:38.103Z,30.50
2019-05-25T12:20:07.875Z,30.70
2019-05-25T12:22:36.339Z,30.40
2019-05-25T12:25:08.169Z,30.20
2019-05-25T12:27:36.854Z,30.00
2019-05-25T12:30:07.222Z,30.00
2019-05-25T12:32:35.733Z,29.70
2019-05-25T12:35:06.139Z,29.90
2019-05-25T12:37:34.647Z,29.70
2019-05-25T12:40:04.748Z,29.50
2019-05-25T12:42:33.257Z,29.60
2019-05-25T12:45:01.780Z,29.80
2019-05-25T12:47:30.229Z,29.80
2019-05-25T12:49:58.768Z,29.00
2019-05-25T12:52:27.223Z,29.10
2019-05-25T12:54:55.773Z,29.00
2019-05-25T12:57:24.345Z,29.00
2019-05-25T12:59:53.431Z,28.80
2019-05-25T13:02:21.875Z,29.00
2019-05-25T13:04:50.349Z,28.60
2019-05-25T13:07:18.815Z,28.40
2019-05-25T13:09:47.408Z,28.40
2019-05-25T13:12:15.856Z,28.50
2019-05-25T13:14:44.321Z,28.70
2019-05-25T13:17:12.759Z,28.10
2019-05-25T13:19:41.232Z,27.50
2019-05-25T13:22:09.695Z,28.00
2019-05-25T13:24:38.260Z,29.10
2019-05-25T13:27:06.886Z,28.90
2019-05-25T13:29:35.346Z,29.10
2019-05-25T13:32:03.932Z,29.20
2019-05-25T13:34:32.394Z,29.00
2019-05-25T13:37:01.804Z,29.00
2019-05-25T13:39:30.700Z,29.10
2019-05-25T13:41:59.290Z,29.10
2019-05-25T13:44:27.762Z,29.20
2019-05-25T13:46:56.206Z,29.40
2019-05-25T13:49:24.668Z,29.40
2019-05-25T13:51:53.107Z,29.60
2019-05-25T13:54:21.542Z,29.60
2019-05-25T13:56:50.015Z,29.50
2019-05-25T13:59:18.461Z,29.70
2019-05-25T14:01:46.924Z,29.60
2019-05-25T14:04:15.375Z,29.70
2019-05-25T14:06:43.838Z,29.70
2019-05-25T14:09:15.626Z,29.50
2019-05-25T14:11:42.568Z,29.60
2019-05-25T14:14:11.081Z,29.50
2019-05-25T14:16:39.558Z,29.50
2019-05-25T14:19:07.994Z,29.50
2019-05-25T14:21:36.462Z,29.20
2019-05-25T14:24:05.016Z,29.20
2019-05-25T14:26:33.468Z,29.10
2019-05-25T14:29:01.975Z,29.10
2019-05-25T14:31:44.376Z,29.00
2019-05-25T14:34:00.684Z,29.10
2019-05-25T14:36:29.141Z,29.20
2019-05-25T14:38:57.626Z,28.70
2019-05-25T14:41:26.131Z,28.50
2019-05-25T14:43:54.583Z,28.50
2019-05-25T14:46:27.923Z,28.50
2019-05-25T14:48:53.198Z,28.50
2019-05-25T14:51:21.656Z,28.30
2019-05-25T14:56:18.236Z,28.30
2019-05-25T14:58:46.804Z,28.30
2019-05-25T15:01:15.328Z,28.10
2019-05-25T15:03:43.778Z,28.10
2019-05-25T15:06:12.310Z,28.30
2019-05-25T15:08:40.772Z,28.30
2019-05-25T15:11:09.237Z,28.10
2019-05-25T15:13:37.676Z,27.70
2019-05-25T15:16:06.148Z,27.50
2019-05-25T15:18:34.597Z,27.60
2019-05-25T15:21:03.060Z,27.60
2019-05-25T15:23:31.500Z,27.30
2019-05-25T15:25:59.968Z,27.20
2019-05-25T15:28:28.411Z,27.00
2019-05-25T15:30:56.854Z,27.20
2019-05-25T15:33:25.320Z,27.00
2019-05-25T15:35:53.841Z,26.90
2019-05-25T15:38:22.307Z,27.20
2019-05-25T15:40:50.751Z,26.90
2019-05-25T15:43:19.313Z,26.50
2019-05-25T15:45:47.815Z,25.90
2019-05-25T15:48:16.290Z,26.30
2019-05-25T15:50:44.752Z,26.00
2019-05-25T15:53:13.213Z,25.80
2019-05-25T15:55:41.660Z,24.80
2019-05-25T15:58:10.129Z,25.10
2019-05-25T16:00:46.666Z,25.00
2019-05-25T16:03:16.083Z,24.80
2019-05-25T16:05:47.447Z,25.40
2019-05-25T16:08:14.873Z,24.50
2019-05-25T16:10:43.449Z,24.10
2019-05-25T16:13:12.180Z,24.00
2019-05-25T16:15:40.634Z,23.90
2019-05-25T16:18:09.093Z,23.60
2019-05-25T16:20:37.563Z,23.20
2019-05-25T16:23:06.029Z,23.20
2019-05-25T16:25:34.819Z,22.90
2019-05-25T16:28:03.295Z,22.40
2019-05-25T16:30:33.352Z,22.80
2019-05-25T16:33:17.061Z,22.90
2019-05-25T16:35:32.052Z,22.60
2019-05-25T16:38:00.729Z,22.10
2019-05-25T16:40:29.239Z,21.80
2019-05-25T16:42:57.733Z,21.70
2019-05-25T16:45:26.445Z,21.30
2019-05-25T16:47:54.949Z,21.40
2019-05-25T16:50:23.394Z,20.20
2019-05-25T16:52:52.062Z,20.90
2019-05-25T16:55:20.576Z,20.50
2019-05-25T16:57:49.086Z,20.30
2019-05-25T17:00:20.656Z,20.50
2019-05-25T17:02:49.097Z,20.40
2019-05-25T17:05:17.565Z,20.70
2019-05-25T17:07:46.009Z,20.50
2019-05-25T17:10:14.659Z,20.40
2019-05-25T17:12:43.161Z,21.10
2019-05-25T17:15:11.697Z,20.70
2019-05-25T17:17:40.154Z,20.40
2019-05-25T17:20:09.164Z,20.20
2019-05-25T17:22:37.617Z,20.30
2019-05-25T17:25:07.431Z,20.10
2019-05-25T17:27:35.941Z,19.90
2019-05-25T17:30:07.048Z,19.90
2019-05-25T17:32:35.730Z,20.00
2019-05-25T17:35:05.248Z,20.30
2019-05-25T17:37:33.769Z,20.50
2019-05-25T17:40:02.296Z,20.90
2019-05-25T17:42:30.748Z,21.10
2019-05-25T17:44:59.240Z,21.60
2019-05-25T17:47:27.801Z,21.50
2019-05-25T17:49:56.265Z,21.60
2019-05-25T17:52:24.721Z,21.90
2019-05-25T17:54:53.185Z,22.40
2019-05-25T17:57:21.647Z,22.80
2019-05-25T17:59:50.193Z,23.00
2019-05-25T18:02:18.648Z,22.80
2019-05-25T18:04:47.120Z,23.30
2019-05-25T18:07:15.564Z,23.50
2019-05-25T18:09:44.101Z,23.70
2019-05-25T18:12:12.551Z,23.70
2019-05-25T18:14:41.078Z,24.20
2019-05-25T18:17:09.541Z,24.40
2019-05-25T18:19:38.010Z,24.70
2019-05-25T18:22:06.546Z,24.60
2019-05-25T18:24:35.038Z,25.10
2019-05-25T18:27:03.560Z,25.20
2019-05-25T18:29:32.003Z,25.20
2019-05-25T18:32:00.559Z,25.20
2019-05-25T18:34:29.178Z,25.60
2019-05-25T18:36:57.624Z,25.70
2019-05-25T18:39:26.111Z,25.70
2019-05-25T18:41:54.589Z,25.60
2019-05-25T18:44:23.035Z,25.90
2019-05-25T18:46:51.505Z,26.00
2019-05-25T18:49:19.977Z,26.40
2019-05-25T18:51:48.438Z,26.50
2019-05-25T18:54:16.984Z,26.20
2019-05-25T18:56:45.496Z,26.60
2019-05-25T18:59:14.159Z,26.80
2019-05-25T19:01:42.604Z,26.40
2019-05-25T19:04:11.051Z,26.70
2019-05-25T19:06:39.795Z,26.70
2019-05-25T19:09:10.435Z,27.40
2019-05-25T19:11:39.154Z,27.50
2019-05-25T19:14:07.613Z,27.40
2019-05-25T19:21:32.625Z,28.90
2019-05-25T19:26:29.294Z,29.40
2019-05-25T19:28:57.893Z,30.00
2019-05-25T19:31:26.373Z,29.90
2019-05-25T19:33:54.812Z,29.90
2019-05-25T19:36:23.282Z,30.30
2019-05-25T19:38:51.763Z,30.60
2019-05-25T19:41:20.227Z,30.80
2019-05-25T19:43:48.744Z,30.30
2019-05-25T19:46:17.371Z,30.90
2019-05-25T19:48:45.848Z,31.10
2019-05-25T19:51:14.349Z,31.40
2019-05-25T19:53:42.789Z,30.50
2019-05-25T19:56:11.237Z,31.50
2019-05-25T19:58:39.723Z,31.40
2019-05-25T20:01:08.185Z,31.50
2019-05-25T20:03:36.703Z,31.10
2019-05-25T20:06:05.176Z,31.90
2019-05-25T20:08:33.753Z,31.20
2019-05-25T20:11:02.319Z,32.50
2019-05-25T20:13:30.865Z,31.70
2019-05-25T20:15:59.471Z,32.40
2019-05-25T20:18:28.003Z,32.30
2019-05-25T20:20:56.555Z,32.30
2019-05-25T20:23:24.992Z,31.80
2019-05-25T20:25:53.502Z,32.70
2019-05-25T20:28:22.043Z,32.50
2019-05-25T20:30:50.679Z,32.90
2019-05-25T20:33:27.773Z,32.10
2019-05-25T20:35:49.383Z,32.30
2019-05-25T20:38:17.858Z,32.80
2019-05-25T20:40:46.329Z,32.70
2019-05-25T20:43:14.879Z,32.80
2019-05-25T20:45:43.357Z,33.30
2019-05-25T20:48:11.806Z,33.50
2019-05-25T20:50:40.357Z,33.30
2019-05-25T20:53:08.817Z,33.30
2019-05-25T20:55:37.389Z,33.90
2019-05-25T20:58:06.095Z,33.40
2019-05-25T21:00:34.570Z,33.60
2019-05-25T21:03:06.516Z,32.80
2019-05-25T21:05:49.084Z,33.70
2019-05-25T21:08:03.487Z,33.80
2019-05-25T21:10:32.076Z,33.80
2019-05-25T21:13:00.590Z,33.40
2019-05-25T21:15:29.152Z,33.40
2019-05-25T21:17:57.738Z,34.40
2019-05-25T21:20:26.316Z,34.50
2019-05-25T21:22:54.760Z,33.60
2019-05-25T21:25:23.244Z,34.50
2019-05-25T21:27:51.715Z,34.60
2019-05-25T21:30:20.794Z,34.80
2019-05-25T21:32:49.237Z,35.00
2019-05-25T21:35:17.788Z,35.40
2019-05-25T21:37:46.232Z,35.30
2019-05-25T21:40:14.956Z,35.70
2019-05-25T21:42:43.489Z,34.60
2019-05-25T21:45:12.435Z,35.50
2019-05-25T21:47:40.875Z,36.30
2019-05-25T21:50:09.785Z,37.00
2019-05-25T21:52:38.529Z,35.80
2019-05-25T21:55:07.751Z,36.50
2019-05-25T21:57:36.221Z,37.20
2019-05-25T22:00:08.800Z,37.60
2019-05-25T22:02:37.324Z,37.20
2019-05-25T22:05:07.335Z,37.70
2019-05-25T22:07:35.805Z,38.00
2019-05-25T22:10:05.435Z,37.80
2019-05-25T22:12:33.999Z,37.90
2019-05-25T22:15:02.469Z,38.20
2019-05-25T22:17:30.990Z,38.60
2019-05-25T22:19:59.642Z,39.60
2019-05-25T22:22:28.152Z,37.80
2019-05-25T22:24:56.622Z,39.00
2019-05-25T22:27:25.102Z,38.70
2019-05-25T22:29:53.619Z,38.60
2019-05-25T22:32:22.096Z,37.70
2019-05-25T22:34:50.579Z,38.10
2019-05-25T22:37:19.048Z,38.00
2019-05-25T22:39:47.530Z,37.80
2019-05-25T22:42:16.046Z,36.90
2019-05-25T22:44:44.540Z,37.70
2019-05-25T22:47:12.975Z,37.00
2019-05-25T22:49:41.513Z,37.70
2019-05-25T22:52:09.983Z,36.70
2019-05-25T22:54:38.460Z,37.40
2019-05-25T22:57:06.996Z,37.40
2019-05-25T22:59:35.452Z,37.30
2019-05-25T23:02:04.414Z,36.60
2019-05-25T23:04:32.952Z,37.20
2019-05-25T23:07:01.405Z,37.40
2019-05-25T23:09:29.897Z,37.40
2019-05-25T23:11:58.351Z,37.30
2019-05-25T23:14:26.984Z,37.80
2019-05-25T23:16:55.487Z,38.00
2019-05-25T23:19:23.964Z,37.90
2019-05-25T23:24:20.557Z,37.40
2019-05-25T23:26:49.106Z,37.20
2019-05-25T23:29:17.568Z,37.60
2019-05-25T23:31:46.041Z,37.70
2019-05-25T23:34:14.482Z,37.50
2019-05-25T23:36:42.958Z,37.90
2019-05-25T23:39:11.406Z,38.20
2019-05-25T23:41:39.877Z,37.90
2019-05-25T23:44:08.332Z,37.90
2019-05-25T23:46:36.962Z,38.20
2019-05-25T23:49:05.653Z,38.10
2019-05-25T23:51:34.195Z,38.10
2019-05-25T23:54:02.652Z,37.90
2019-05-25T23:56:31.190Z,38.60
2019-05-25T23:58:59.631Z,38.00
